Time;durP1;ratioP1;P1;durP2;ratioP2;P2;SDS_P1;SDS_P2;PMS_P1;PMS_P2;Temp;Humidity;BMP_temperature;BMP_pressure;BME280_temperature;BME280_humidity;BME280_pressure;Samples;Min_cycle;Max_cycle;Signal;HPM_P1;HPM_P2
2023/04/05 00:01:48;;;;;;;8.93;4.15;;;;;;;;;;5083955;28;20048;-65
2023/04/05 00:04:19;;;;;;;9.90;4.68;;;;;;;;;;5084162;28;20526;-65
2023/04/05 00:06:49;;;;;;;16.27;4.50;;;;;;;;;;5059636;28;20141;-65
2023/04/05 00:09:19;;;;;;;9.27;4.13;;;;;;;;;;5081974;28;20058;-65
2023/04/05 00:11:46;;;;;;;9.32;4.03;;;;;;;;;;5075834;28;20406;-65
2023/04/05 00:14:13;;;;;;;11.23;4.10;;;;;;;;;;5063791;28;20135;-65
2023/04/05 00:16:40;;;;;;;10.30;4.20;;;;;;;;;;5081030;28;20068;-65
2023/04/05 00:19:11;;;;;;;11.38;4.20;;;;;;;;;;5066054;28;20048;-65
2023/04/05 00:21:39;;;;;;;11.95;4.35;;;;;;;;;;5080165;28;20048;-65
2023/04/05 00:24:14;;;;;;;11.65;4.18;;;;;;;;;;5082305;28;20052;-65
2023/04/05 00:26:43;;;;;;;11.32;4.25;;;;;;;;;;5079028;28;20051;-65
2023/04/05 00:29:10;;;;;;;8.07;4.40;;;;;;;;;;5080718;28;20055;-65
2023/04/05 00:31:38;;;;;;;9.40;4.00;;;;;;;;;;5067056;28;20060;-65
2023/04/05 00:34:07;;;;;;;9.30;4.28;;;;;;;;;;5081926;28;20052;-65
2023/04/05 00:36:36;;;;;;;9.45;4.28;;;;;;;;;;5065819;28;20084;-65
2023/04/05 00:39:04;;;;;;;11.85;4.28;;;;;;;;;;5082214;28;20064;-65
2023/04/05 00:41:31;;;;;;;8.65;3.88;;;;;;;;;;5063281;28;20131;-65
2023/04/05 00:43:59;;;;;;;9.68;3.55;;;;;;;;;;5082761;28;20049;-65
2023/04/05 00:46:28;;;;;;;11.55;4.18;;;;;;;;;;5061385;28;20048;-65
2023/04/05 00:48:55;;;;;;;10.50;4.47;;;;;;;;;;5082433;28;20462;-65
2023/04/05 00:51:23;;;;;;;10.75;4.13;;;;;;;;;;5087753;28;20044;-65
2023/04/05 00:53:53;;;;;;;12.35;3.80;;;;;;;;;;5083670;28;20048;-65
2023/04/05 00:56:21;;;;;;;6.25;3.28;;;;;;;;;;5086779;28;20071;-64
2023/04/05 00:58:50;;;;;;;7.57;3.33;;;;;;;;;;5078894;28;20130;-65
2023/04/05 01:01:19;;;;;;;11.40;3.78;;;;;;;;;;5090068;28;20105;-65
2023/04/05 01:03:48;;;;;;;10.10;4.20;;;;;;;;;;5078776;28;20055;-65
2023/04/05 01:06:22;;;;;;;10.23;5.03;;;;;;;;;;5086653;28;20062;-65
2023/04/05 01:08:52;;;;;;;10.02;4.38;;;;;;;;;;5062024;28;20052;-65
2023/04/05 01:11:21;;;;;;;9.25;3.90;;;;;;;;;;5084273;28;20090;-65
2023/04/05 01:13:50;;;;;;;12.00;4.18;;;;;;;;;;5080122;28;20055;-67
2023/04/05 01:16:17;;;;;;;6.63;3.58;;;;;;;;;;5089872;28;20058;-65
2023/04/05 01:18:46;;;;;;;10.15;4.40;;;;;;;;;;5087346;28;20640;-64
2023/04/05 01:21:28;;;;;;;8.25;4.18;;;;;;;;;;5087652;28;20131;-65
2023/04/05 01:24:00;;;;;;;9.15;4.25;;;;;;;;;;5081452;28;20052;-64
2023/04/05 01:26:47;;;;;;;10.38;3.67;;;;;;;;;;5091429;28;20407;-65
2023/04/05 01:29:25;;;;;;;7.13;3.47;;;;;;;;;;5085471;28;20460;-65
2023/04/05 01:31:57;;;;;;;9.93;3.97;;;;;;;;;;5086134;28;21141;-65
2023/04/05 01:34:26;;;;;;;13.15;4.35;;;;;;;;;;5082784;28;20126;-65
2023/04/05 01:36:55;;;;;;;12.02;4.13;;;;;;;;;;5086085;28;20044;-64
2023/04/05 01:39:24;;;;;;;9.88;3.90;;;;;;;;;;5089596;28;20060;-64
2023/04/05 01:41:51;;;;;;;10.77;4.00;;;;;;;;;;5085435;28;20040;-65
2023/04/05 01:44:19;;;;;;;8.10;3.88;;;;;;;;;;5087262;28;20048;-65
2023/04/05 01:46:47;;;;;;;9.07;4.10;;;;;;;;;;5085093;28;20781;-64
2023/04/05 01:49:15;;;;;;;13.43;3.90;;;;;;;;;;5087834;28;20056;-65
2023/04/05 01:51:42;;;;;;;12.82;3.70;;;;;;;;;;5089572;28;20506;-65
2023/04/05 01:54:09;;;;;;;7.47;3.83;;;;;;;;;;5082125;28;20131;-65
2023/04/05 01:56:36;;;;;;;8.90;3.83;;;;;;;;;;5089006;28;20403;-65
2023/04/05 01:59:04;;;;;;;8.75;4.00;;;;;;;;;;5082938;28;20044;-65
2023/04/05 02:01:31;;;;;;;9.45;4.10;;;;;;;;;;5087509;28;20507;-65
2023/04/05 02:03:59;;;;;;;9.02;4.22;;;;;;;;;;5085627;28;20062;-65
2023/04/05 02:06:27;;;;;;;9.57;3.70;;;;;;;;;;5088257;28;20067;-65
2023/04/05 02:08:54;;;;;;;7.95;3.30;;;;;;;;;;5067769;28;20377;-65
2023/04/05 02:11:21;;;;;;;8.02;3.53;;;;;;;;;;5086978;28;20115;-65
2023/04/05 02:13:48;;;;;;;9.20;3.75;;;;;;;;;;5082940;28;20048;-65
2023/04/05 02:16:17;;;;;;;12.63;4.00;;;;;;;;;;5088961;28;20373;-65
2023/04/05 02:18:49;;;;;;;7.43;3.78;;;;;;;;;;5087423;28;20056;-65
2023/04/05 02:21:20;;;;;;;6.55;3.78;;;;;;;;;;5088522;28;20517;-65
2023/04/05 02:23:47;;;;;;;10.00;4.25;;;;;;;;;;5086942;28;20048;-65
2023/04/05 02:26:15;;;;;;;8.68;3.85;;;;;;;;;;5087663;28;20047;-65
2023/04/05 02:28:42;;;;;;;9.27;3.88;;;;;;;;;;5084225;28;20052;-65
2023/04/05 02:31:10;;;;;;;9.15;3.45;;;;;;;;;;5085809;28;20043;-65
2023/04/05 02:33:38;;;;;;;10.75;4.38;;;;;;;;;;5081759;28;20059;-65
2023/04/05 02:36:06;;;;;;;11.82;4.25;;;;;;;;;;5085593;28;20048;-65
2023/04/05 02:38:35;;;;;;;7.75;3.97;;;;;;;;;;5079169;28;20052;-65
2023/04/05 02:41:02;;;;;;;7.90;4.22;;;;;;;;;;5088272;28;20491;-64
2023/04/05 02:43:29;;;;;;;8.52;3.90;;;;;;;;;;5084896;28;20453;-65
2023/04/05 02:45:57;;;;;;;10.23;4.30;;;;;;;;;;5087581;28;20056;-65
2023/04/05 02:48:24;;;;;;;10.15;3.92;;;;;;;;;;5082472;28;20073;-65
2023/04/05 02:50:52;;;;;;;9.23;4.00;;;;;;;;;;5086542;28;20048;-65
2023/04/05 02:53:20;;;;;;;8.20;3.85;;;;;;;;;;5061968;28;20499;-65
2023/04/05 02:55:53;;;;;;;9.70;4.18;;;;;;;;;;5083293;28;20056;-65
2023/04/05 02:58:21;;;;;;;7.53;3.55;;;;;;;;;;5086009;28;20098;-65
2023/04/05 03:00:49;;;;;;;7.15;4.00;;;;;;;;;;5084002;28;20047;-64
2023/04/05 03:03:17;;;;;;;9.57;4.47;;;;;;;;;;5085085;28;20517;-65
2023/04/05 03:05:45;;;;;;;9.52;3.95;;;;;;;;;;5082214;28;20213;-65
2023/04/05 03:08:17;;;;;;;7.80;3.70;;;;;;;;;;5087089;28;20443;-64
2023/04/05 03:10:44;;;;;;;9.77;3.92;;;;;;;;;;5086235;28;20109;-65
2023/04/05 03:13:14;;;;;;;9.77;4.47;;;;;;;;;;5088083;28;20106;-65
2023/04/05 03:15:41;;;;;;;11.52;3.78;;;;;;;;;;5088452;28;20156;-65
2023/04/05 03:18:09;;;;;;;8.27;3.88;;;;;;;;;;5087377;28;20119;-65
2023/04/05 03:20:39;;;;;;;10.52;4.07;;;;;;;;;;5059608;28;20055;-64
2023/04/05 03:23:07;;;;;;;8.80;4.32;;;;;;;;;;5077110;28;20048;-65
2023/04/05 03:25:36;;;;;;;11.68;4.32;;;;;;;;;;5065789;28;20056;-64
2023/04/05 03:28:04;;;;;;;7.32;3.47;;;;;;;;;;5080960;28;20495;-64
2023/04/05 03:30:33;;;;;;;7.57;3.80;;;;;;;;;;5082069;28;20410;-65
2023/04/05 03:33:01;;;;;;;7.72;3.80;;;;;;;;;;5067987;28;20052;-64
2023/04/05 03:35:29;;;;;;;11.75;4.05;;;;;;;;;;5087211;28;20158;-64
2023/04/05 03:37:56;;;;;;;9.57;3.60;;;;;;;;;;5080179;28;20097;-65
2023/04/05 03:40:24;;;;;;;13.20;4.35;;;;;;;;;;5083760;28;20048;-64
2023/04/05 03:42:51;;;;;;;7.30;3.40;;;;;;;;;;5085842;28;20044;-65
2023/04/05 03:45:18;;;;;;;9.93;4.10;;;;;;;;;;5084716;28;20051;-65
2023/04/05 03:47:47;;;;;;;8.70;4.00;;;;;;;;;;5087006;28;20044;-64
2023/04/05 03:50:14;;;;;;;8.82;3.88;;;;;;;;;;5086378;28;20059;-65
2023/04/05 03:52:41;;;;;;;8.73;3.72;;;;;;;;;;5082248;28;20062;-65
2023/04/05 03:55:09;;;;;;;9.15;4.00;;;;;;;;;;5086398;28;20036;-65
2023/04/05 03:57:38;;;;;;;8.73;4.30;;;;;;;;;;5082940;28;20052;-64
2023/04/05 04:00:12;;;;;;;10.38;4.00;;;;;;;;;;5086769;28;20080;-65
2023/04/05 04:02:40;;;;;;;12.13;4.07;;;;;;;;;;5085176;28;20126;-65
2023/04/05 04:05:09;;;;;;;10.13;3.85;;;;;;;;;;5085201;28;20119;-65
2023/04/05 04:07:37;;;;;;;7.70;3.65;;;;;;;;;;5086660;28;20052;-65
2023/04/05 04:10:04;;;;;;;9.60;3.88;;;;;;;;;;5086616;28;20044;-64
2023/04/05 04:12:32;;;;;;;8.30;3.92;;;;;;;;;;5085797;28;20055;-65
2023/04/05 04:14:59;;;;;;;8.80;4.28;;;;;;;;;;5084152;28;20052;-65
2023/04/05 04:17:27;;;;;;;10.23;4.22;;;;;;;;;;5084236;28;20052;-65
2023/04/05 04:19:54;;;;;;;8.70;4.18;;;;;;;;;;5063369;28;20139;-65
2023/04/05 04:22:25;;;;;;;8.63;3.50;;;;;;;;;;5084636;28;20048;-65
2023/04/05 04:24:53;;;;;;;9.68;3.83;;;;;;;;;;5083114;28;20462;-65
2023/04/05 04:27:20;;;;;;;6.93;3.63;;;;;;;;;;5083673;28;20048;-65
2023/04/05 04:29:48;;;;;;;8.02;3.92;;;;;;;;;;5085226;28;20052;-65
2023/04/05 04:32:15;;;;;;;8.23;3.88;;;;;;;;;;5080037;28;20056;-65
2023/04/05 04:34:44;;;;;;;7.32;3.55;;;;;;;;;;5082251;28;20054;-64
2023/04/05 04:37:17;;;;;;;10.00;4.10;;;;;;;;;;5087815;28;20075;-65
2023/04/05 04:39:47;;;;;;;8.80;4.25;;;;;;;;;;5089151;28;20082;-65
2023/04/05 04:42:18;;;;;;;9.00;4.40;;;;;;;;;;5087732;28;20546;-64
2023/04/05 04:44:46;;;;;;;12.27;4.22;;;;;;;;;;5089450;28;20056;-64
2023/04/05 04:47:16;;;;;;;11.13;4.38;;;;;;;;;;5089584;28;20052;-65
2023/04/05 04:49:43;;;;;;;8.05;3.95;;;;;;;;;;5089269;28;20078;-65
2023/04/05 04:52:10;;;;;;;9.32;3.97;;;;;;;;;;5088213;28;20052;-65
2023/04/05 04:54:41;;;;;;;8.90;3.97;;;;;;;;;;5083359;28;20059;-67
2023/04/05 04:57:10;;;;;;;13.23;4.22;;;;;;;;;;5085932;28;20066;-64
2023/04/05 04:59:37;;;;;;;7.00;4.03;;;;;;;;;;5088050;28;20146;-65
2023/04/05 05:02:04;;;;;;;9.88;4.25;;;;;;;;;;5085851;28;20050;-64
2023/04/05 05:04:31;;;;;;;10.88;4.47;;;;;;;;;;5089393;28;20074;-65
2023/04/05 05:06:59;;;;;;;9.50;4.70;;;;;;;;;;5071027;28;20052;-65
2023/04/05 05:09:26;;;;;;;9.05;4.32;;;;;;;;;;5067204;28;20052;-65
2023/04/05 05:11:55;;;;;;;8.63;4.72;;;;;;;;;;5082349;28;20052;-65
2023/04/05 05:14:24;;;;;;;6.93;3.92;;;;;;;;;;5087781;28;20465;-65
2023/04/05 05:16:53;;;;;;;9.18;4.25;;;;;;;;;;5069125;28;20446;-65
2023/04/05 05:19:21;;;;;;;12.23;4.40;;;;;;;;;;5088932;28;20055;-65
2023/04/05 05:21:49;;;;;;;8.70;4.63;;;;;;;;;;5082890;28;20513;-65
2023/04/05 05:24:16;;;;;;;9.10;4.43;;;;;;;;;;5088574;28;20060;-65
2023/04/05 05:26:43;;;;;;;10.07;4.15;;;;;;;;;;5067747;28;20048;-65
2023/04/05 05:29:11;;;;;;;8.80;4.68;;;;;;;;;;5085073;28;20063;-65
2023/04/05 05:31:39;;;;;;;9.35;4.30;;;;;;;;;;5069476;28;20815;-67
2023/04/05 05:34:07;;;;;;;7.93;4.72;;;;;;;;;;5085208;28;20085;-65
2023/04/05 05:36:34;;;;;;;11.77;4.75;;;;;;;;;;5083223;28;20495;-65
2023/04/05 05:39:03;;;;;;;9.23;4.95;;;;;;;;;;5079950;28;20041;-64
2023/04/05 05:41:31;;;;;;;10.88;4.57;;;;;;;;;;5081439;28;20110;-65
2023/04/05 05:43:58;;;;;;;9.35;4.80;;;;;;;;;;5085199;28;20074;-64
2023/04/05 05:46:26;;;;;;;9.18;4.60;;;;;;;;;;5083625;28;20456;-64
2023/04/05 05:48:55;;;;;;;11.38;5.25;;;;;;;;;;5086530;28;20441;-65
2023/04/05 05:51:22;;;;;;;9.40;5.20;;;;;;;;;;5067747;28;20048;-64
2023/04/05 05:53:50;;;;;;;8.52;4.50;;;;;;;;;;5077869;28;20055;-64
2023/04/05 05:56:17;;;;;;;10.70;5.18;;;;;;;;;;5079445;28;20048;-65
2023/04/05 05:58:45;;;;;;;12.48;5.60;;;;;;;;;;5089231;28;20056;-65
2023/04/05 06:01:13;;;;;;;10.85;5.05;;;;;;;;;;5083462;28;20048;-64
2023/04/05 06:03:40;;;;;;;10.52;5.75;;;;;;;;;;5088626;28;20147;-64
2023/04/05 06:06:09;;;;;;;13.98;5.75;;;;;;;;;;5078025;28;20404;-64
2023/04/05 06:08:37;;;;;;;13.88;6.05;;;;;;;;;;5088891;28;20044;-64
2023/04/05 06:11:04;;;;;;;10.15;5.93;;;;;;;;;;5079825;28;20547;-65
2023/04/05 06:13:32;;;;;;;13.30;6.45;;;;;;;;;;5088852;28;20055;-65
2023/04/05 06:16:01;;;;;;;13.90;6.28;;;;;;;;;;5089707;28;20056;-65
2023/04/05 06:18:28;;;;;;;16.30;6.75;;;;;;;;;;5088465;28;20044;-64
2023/04/05 06:20:56;;;;;;;13.45;6.63;;;;;;;;;;5088309;28;20059;-64
2023/04/05 06:23:25;;;;;;;13.75;6.78;;;;;;;;;;5066647;28;20056;-64
2023/04/05 06:25:52;;;;;;;14.13;6.43;;;;;;;;;;5089514;28;20067;-65
2023/04/05 06:28:19;;;;;;;12.95;6.88;;;;;;;;;;5087058;28;20059;-65
2023/04/05 06:30:46;;;;;;;13.07;6.95;;;;;;;;;;5082965;28;20060;-65
2023/04/05 06:33:14;;;;;;;14.73;7.72;;;;;;;;;;5085999;28;20131;-65
2023/04/05 06:35:41;;;;;;;12.93;6.80;;;;;;;;;;5085289;28;20050;-64
2023/04/05 06:38:09;;;;;;;16.00;8.38;;;;;;;;;;5084789;28;20040;-64
2023/04/05 06:40:37;;;;;;;14.73;7.82;;;;;;;;;;5088645;28;20131;-65
2023/04/05 06:43:05;;;;;;;14.82;7.95;;;;;;;;;;5067870;28;20102;-65
2023/04/05 06:45:32;;;;;;;16.02;7.72;;;;;;;;;;5087030;28;20051;-65
2023/04/05 06:48:00;;;;;;;16.70;7.57;;;;;;;;;;5087424;28;20078;-65
2023/04/05 06:50:27;;;;;;;17.30;7.68;;;;;;;;;;5088006;28;20046;-65
2023/04/05 06:52:54;;;;;;;21.27;7.68;;;;;;;;;;5065672;28;20056;-65
2023/04/05 06:55:21;;;;;;;14.70;7.85;;;;;;;;;;5085180;28;20463;-65
2023/04/05 06:57:50;;;;;;;10.93;6.75;;;;;;;;;;5085847;28;20044;-65
2023/04/05 07:00:17;;;;;;;14.90;7.32;;;;;;;;;;5088531;28;20059;-65
2023/04/05 07:02:45;;;;;;;14.98;7.90;;;;;;;;;;5086053;28;20048;-65
2023/04/05 07:05:12;;;;;;;17.90;7.95;;;;;;;;;;5086184;28;20051;-65
2023/04/05 07:07:41;;;;;;;14.60;8.20;;;;;;;;;;5086414;28;20044;-65
2023/04/05 07:10:09;;;;;;;13.18;7.65;;;;;;;;;;5088913;28;20069;-65
2023/04/05 07:12:36;;;;;;;16.85;8.75;;;;;;;;;;5085892;28;20505;-65
2023/04/05 07:15:05;;;;;;;21.05;8.68;;;;;;;;;;5086443;28;20048;-65
2023/04/05 07:17:33;;;;;;;15.73;8.63;;;;;;;;;;5063737;28;20055;-66
2023/04/05 07:20:00;;;;;;;17.65;8.93;;;;;;;;;;5080785;28;20055;-66
2023/04/05 07:22:27;;;;;;;17.75;9.65;;;;;;;;;;5084797;28;20052;-64
2023/04/05 07:24:54;;;;;;;17.95;9.70;;;;;;;;;;5087166;28;20098;-65
2023/04/05 07:27:22;;;;;;;22.13;9.68;;;;;;;;;;5088027;28;20051;-65
2023/04/05 07:29:49;;;;;;;17.98;9.35;;;;;;;;;;5085486;28;20040;-65
2023/04/05 07:32:18;;;;;;;16.38;8.75;;;;;;;;;;5088070;28;20059;-65
2023/04/05 07:34:46;;;;;;;15.48;8.63;;;;;;;;;;5085225;28;20482;-65
2023/04/05 07:37:14;;;;;;;15.93;8.55;;;;;;;;;;5063275;28;20054;-65
2023/04/05 07:39:41;;;;;;;20.42;9.05;;;;;;;;;;5081532;28;20049;-65
2023/04/05 07:42:09;;;;;;;15.38;8.88;;;;;;;;;;5084931;28;20128;-65
2023/04/05 07:44:36;;;;;;;13.57;7.93;;;;;;;;;;5085412;28;20114;-65
2023/04/05 07:47:03;;;;;;;16.35;8.50;;;;;;;;;;5080617;28;20510;-65
2023/04/05 07:49:32;;;;;;;14.68;8.63;;;;;;;;;;5065622;28;20140;-65
2023/04/05 07:52:00;;;;;;;15.40;8.57;;;;;;;;;;5082481;28;20056;-65
2023/04/05 07:54:27;;;;;;;17.95;8.77;;;;;;;;;;5084495;28;20044;-65
2023/04/05 07:56:56;;;;;;;17.83;8.57;;;;;;;;;;5066043;28;21818;-65
2023/04/05 07:59:24;;;;;;;16.08;8.90;;;;;;;;;;5078118;28;20491;-65
2023/04/05 08:01:51;;;;;;;16.77;8.70;;;;;;;;;;5079544;28;20518;-65
2023/04/05 08:04:19;;;;;;;14.82;8.27;;;;;;;;;;5070554;28;20051;-65
2023/04/05 08:06:48;;;;;;;15.63;7.68;;;;;;;;;;5078620;28;20067;-65
2023/04/05 08:09:15;;;;;;;13.80;7.55;;;;;;;;;;5083288;28;20055;-65
2023/04/05 08:11:43;;;;;;;14.43;8.48;;;;;;;;;;5086945;28;20035;-65
2023/04/05 08:14:11;;;;;;;14.88;7.53;;;;;;;;;;5079637;28;20135;-65
2023/04/05 08:16:38;;;;;;;13.13;7.25;;;;;;;;;;5085943;28;20134;-65
2023/04/05 08:19:05;;;;;;;15.18;7.95;;;;;;;;;;5086786;28;20452;-66
2023/04/05 08:21:32;;;;;;;16.33;7.28;;;;;;;;;;5083039;28;20475;-66
2023/04/05 08:24:01;;;;;;;16.15;6.93;;;;;;;;;;5086084;28;20048;-65
2023/04/05 08:26:28;;;;;;;13.63;6.38;;;;;;;;;;5086976;28;20048;-66
2023/04/05 08:28:56;;;;;;;13.43;6.00;;;;;;;;;;5087738;28;20047;-65
2023/04/05 08:31:23;;;;;;;9.20;5.72;;;;;;;;;;5086694;28;20055;-66
2023/04/05 08:33:50;;;;;;;11.30;6.22;;;;;;;;;;5089709;28;20498;-66
2023/04/05 08:36:18;;;;;;;8.50;5.35;;;;;;;;;;5089111;28;20044;-65
2023/04/05 08:38:45;;;;;;;9.60;6.00;;;;;;;;;;5084646;28;20048;-65
2023/04/05 08:41:18;;;;;;;11.10;5.03;;;;;;;;;;5088670;28;20165;-66
2023/04/05 08:43:53;;;;;;;9.68;5.30;;;;;;;;;;5089875;28;20055;-66
2023/04/05 08:46:21;;;;;;;12.38;5.82;;;;;;;;;;5086091;28;20475;-66
2023/04/05 08:48:48;;;;;;;12.68;6.55;;;;;;;;;;5086122;28;20040;-66
2023/04/05 08:51:19;;;;;;;9.57;5.70;;;;;;;;;;5084530;28;20355;-66
2023/04/05 08:53:46;;;;;;;10.73;5.28;;;;;;;;;;5086161;28;20466;-65
2023/04/05 08:56:16;;;;;;;12.88;5.70;;;;;;;;;;5087290;28;20052;-65
2023/04/05 08:58:48;;;;;;;11.35;6.10;;;;;;;;;;5088158;28;20439;-65
2023/04/05 09:01:15;;;;;;;10.27;5.72;;;;;;;;;;5088619;28;20052;-65
2023/04/05 09:03:43;;;;;;;14.52;6.03;;;;;;;;;;5077177;28;20053;-66
2023/04/05 09:06:11;;;;;;;9.30;4.88;;;;;;;;;;5063091;28;20063;-66
2023/04/05 09:08:39;;;;;;;10.07;5.63;;;;;;;;;;5078145;28;20059;-66
2023/04/05 09:11:06;;;;;;;10.38;5.80;;;;;;;;;;5080120;28;20054;-66
2023/04/05 09:13:34;;;;;;;12.52;5.75;;;;;;;;;;5083909;28;20051;-65
2023/04/05 09:16:03;;;;;;;10.23;5.13;;;;;;;;;;5084317;28;20161;-65
2023/04/05 09:18:30;;;;;;;11.70;5.32;;;;;;;;;;5065737;28;20052;-65
2023/04/05 09:21:03;;;;;;;11.35;5.10;;;;;;;;;;5085788;28;20410;-65
2023/04/05 09:23:30;;;;;;;10.75;5.50;;;;;;;;;;5083296;28;20106;-65
2023/04/05 09:25:58;;;;;;;14.75;4.95;;;;;;;;;;5087280;28;20040;-65
2023/04/05 09:28:41;;;;;;;11.20;5.25;;;;;;;;;;5087888;28;20083;-65
2023/04/05 09:31:09;;;;;;;10.77;5.15;;;;;;;;;;5084320;28;20083;-65
2023/04/05 09:33:37;;;;;;;11.68;5.57;;;;;;;;;;5087227;28;20046;-65
2023/04/05 09:36:04;;;;;;;13.82;5.55;;;;;;;;;;5088242;28;20044;-65
2023/04/05 09:38:44;;;;;;;8.98;5.70;;;;;;;;;;5080102;28;20051;-65
2023/04/05 09:41:12;;;;;;;15.45;5.47;;;;;;;;;;5087798;28;20055;-65
2023/04/05 09:43:40;;;;;;;7.57;4.88;;;;;;;;;;5068603;28;20514;-65
2023/04/05 09:46:07;;;;;;;11.20;5.18;;;;;;;;;;5086193;28;20510;-65
2023/04/05 09:48:48;;;;;;;9.30;5.68;;;;;;;;;;5086733;28;20044;-65
2023/04/05 09:51:15;;;;;;;9.57;5.20;;;;;;;;;;5084330;28;20139;-66
2023/04/05 09:53:57;;;;;;;8.00;5.00;;;;;;;;;;5083517;28;20048;-66
2023/04/05 09:56:25;;;;;;;11.80;5.30;;;;;;;;;;5084446;28;20106;-65
2023/04/05 09:58:52;;;;;;;9.88;5.57;;;;;;;;;;5084725;28;20521;-65
2023/04/05 10:01:20;;;;;;;10.40;5.05;;;;;;;;;;5087564;28;20056;-66
2023/04/05 10:03:49;;;;;;;10.73;5.15;;;;;;;;;;5065643;28;20057;-65
2023/04/05 10:06:17;;;;;;;8.82;5.72;;;;;;;;;;5082299;28;20064;-66
2023/04/05 10:08:45;;;;;;;9.00;4.80;;;;;;;;;;5081360;28;20044;-65
2023/04/05 10:11:13;;;;;;;10.60;5.18;;;;;;;;;;5086805;28;20047;-66
2023/04/05 10:13:41;;;;;;;11.65;5.47;;;;;;;;;;5084682;28;20044;-66
2023/04/05 10:16:11;;;;;;;10.90;5.13;;;;;;;;;;5080151;28;20059;-67
2023/04/05 10:18:41;;;;;;;10.10;5.05;;;;;;;;;;5081683;28;20044;-67
2023/04/05 10:21:11;;;;;;;10.95;4.88;;;;;;;;;;5088745;28;20429;-71
2023/04/05 10:23:40;;;;;;;11.82;5.00;;;;;;;;;;5088254;28;20059;-71
2023/04/05 10:26:10;;;;;;;8.77;4.70;;;;;;;;;;5060572;28;20064;-71
2023/04/05 10:28:38;;;;;;;8.82;4.45;;;;;;;;;;5086122;28;20044;-71
2023/04/05 10:31:11;;;;;;;7.10;4.50;;;;;;;;;;5083685;28;20048;-70
2023/04/05 10:33:41;;;;;;;7.38;4.00;;;;;;;;;;5081907;28;20105;-71
2023/04/05 10:36:15;;;;;;;8.35;4.30;;;;;;;;;;5084624;28;20639;-71
2023/04/05 10:38:47;;;;;;;9.25;4.32;;;;;;;;;;5083017;28;20479;-70
2023/04/05 10:41:15;;;;;;;6.75;4.45;;;;;;;;;;5083089;28;20537;-71
2023/04/05 10:43:42;;;;;;;7.13;4.53;;;;;;;;;;5083159;28;20173;-71
2023/04/05 10:46:11;;;;;;;10.50;4.43;;;;;;;;;;5082579;28;20044;-71
2023/04/05 10:48:41;;;;;;;8.48;4.20;;;;;;;;;;5086588;28;20055;-71
2023/04/05 10:51:10;;;;;;;8.50;4.60;;;;;;;;;;5079599;28;20063;-71
2023/04/05 10:53:38;;;;;;;8.48;4.15;;;;;;;;;;5081225;28;20045;-71
2023/04/05 10:56:06;;;;;;;7.40;4.45;;;;;;;;;;5081193;28;20105;-71
2023/04/05 10:58:34;;;;;;;9.65;4.38;;;;;;;;;;5085420;28;20066;-71
2023/04/05 11:01:02;;;;;;;9.82;4.20;;;;;;;;;;5065590;28;20059;-71
2023/04/05 11:03:42;;;;;;;9.85;4.47;;;;;;;;;;5086354;28;20054;-71
2023/04/05 11:06:19;;;;;;;9.38;4.53;;;;;;;;;;5083787;28;20491;-71
2023/04/05 11:08:47;;;;;;;7.70;4.55;;;;;;;;;;5082300;28;20080;-71
2023/04/05 11:11:16;;;;;;;10.27;4.38;;;;;;;;;;5085343;28;20146;-71
2023/04/05 11:13:49;;;;;;;6.38;3.97;;;;;;;;;;5080572;28;20063;-70
2023/04/05 11:16:16;;;;;;;9.97;4.87;;;;;;;;;;5084674;28;20048;-70
2023/04/05 11:18:46;;;;;;;7.57;4.45;;;;;;;;;;5082037;28;20059;-70
2023/04/05 11:21:20;;;;;;;9.10;4.60;;;;;;;;;;5086246;28;20079;-70
2023/04/05 11:24:02;;;;;;;7.55;4.38;;;;;;;;;;5087751;28;20136;-71
2023/04/05 11:26:32;;;;;;;7.85;4.32;;;;;;;;;;5072338;28;20534;-71
2023/04/05 11:29:00;;;;;;;6.47;4.18;;;;;;;;;;5080422;28;20054;-71
2023/04/05 11:31:27;;;;;;;8.10;4.60;;;;;;;;;;5084945;28;20040;-71
2023/04/05 11:33:58;;;;;;;11.02;4.53;;;;;;;;;;5067093;28;20127;-71
2023/04/05 11:36:40;;;;;;;11.20;4.75;;;;;;;;;;5083967;28;20045;-71
2023/04/05 11:39:27;;;;;;;9.18;4.63;;;;;;;;;;5087160;28;20052;-71
2023/04/05 11:42:02;;;;;;;9.52;4.65;;;;;;;;;;5086177;28;20048;-71
2023/04/05 11:44:30;;;;;;;8.77;4.97;;;;;;;;;;5085104;28;20055;-70
2023/04/05 11:46:57;;;;;;;7.72;4.28;;;;;;;;;;5086686;28;20052;-71
2023/04/05 11:49:25;;;;;;;8.05;3.67;;;;;;;;;;5084191;28;20504;-71
2023/04/05 11:51:53;;;;;;;6.72;4.05;;;;;;;;;;5086105;28;20048;-71
2023/04/05 11:54:31;;;;;;;8.10;4.22;;;;;;;;;;5061220;28;20047;-71
2023/04/05 11:56:59;;;;;;;7.25;4.57;;;;;;;;;;5066442;28;20051;-71
2023/04/05 11:59:30;;;;;;;7.97;4.28;;;;;;;;;;5084144;28;20553;-70
2023/04/05 12:02:01;;;;;;;5.60;4.10;;;;;;;;;;5084271;28;20126;-71
2023/04/05 12:04:28;;;;;;;7.00;4.55;;;;;;;;;;5079587;28;20040;-71
2023/04/05 12:07:12;;;;;;;9.23;4.50;;;;;;;;;;5082895;28;20600;-71
2023/04/05 12:09:54;;;;;;;6.78;3.85;;;;;;;;;;5086562;28;20048;-71
2023/04/05 12:12:23;;;;;;;7.25;4.05;;;;;;;;;;5085279;28;20052;-71
2023/04/05 12:14:50;;;;;;;5.93;3.55;;;;;;;;;;5082663;28;20127;-71
2023/04/05 12:17:17;;;;;;;7.80;4.00;;;;;;;;;;5079916;28;20059;-71
2023/04/05 12:19:45;;;;;;;8.93;3.78;;;;;;;;;;5086229;28;20052;-71
2023/04/05 12:22:12;;;;;;;13.65;4.60;;;;;;;;;;5067932;28;20076;-71
2023/04/05 12:24:39;;;;;;;5.75;3.90;;;;;;;;;;5085694;28;20131;-71
2023/04/05 12:27:07;;;;;;;7.15;3.70;;;;;;;;;;5079014;28;20056;-71
2023/04/05 12:29:35;;;;;;;7.60;4.10;;;;;;;;;;5072403;28;20515;-71
2023/04/05 12:32:03;;;;;;;7.78;4.63;;;;;;;;;;5077578;28;20036;-72
2023/04/05 12:34:30;;;;;;;6.82;4.40;;;;;;;;;;5065134;28;20056;-71
2023/04/05 12:37:02;;;;;;;7.10;4.20;;;;;;;;;;5076747;28;20068;-71
2023/04/05 12:39:30;;;;;;;5.85;4.15;;;;;;;;;;5084475;28;20427;-71
2023/04/05 12:41:59;;;;;;;6.93;3.95;;;;;;;;;;5086002;28;20052;-72
2023/04/05 12:44:30;;;;;;;5.65;3.83;;;;;;;;;;5082119;28;20047;-71
2023/04/05 12:47:02;;;;;;;7.38;3.90;;;;;;;;;;5064478;28;20047;-71
2023/04/05 12:49:29;;;;;;;6.60;3.70;;;;;;;;;;5063687;28;20059;-71
2023/04/05 12:52:01;;;;;;;5.57;3.80;;;;;;;;;;5085347;28;20483;-71
2023/04/05 12:54:28;;;;;;;6.15;3.67;;;;;;;;;;5085563;28;20089;-71
2023/04/05 12:56:56;;;;;;;9.52;3.70;;;;;;;;;;5086720;28;20044;-71
2023/04/05 12:59:24;;;;;;;5.50;3.53;;;;;;;;;;5086273;28;20491;-71
2023/04/05 13:01:51;;;;;;;6.32;3.45;;;;;;;;;;5086953;28;20044;-71
2023/04/05 13:04:21;;;;;;;6.50;3.78;;;;;;;;;;5083348;28;20070;-71
2023/04/05 13:06:49;;;;;;;6.53;3.90;;;;;;;;;;5086795;28;20048;-71
2023/04/05 13:09:16;;;;;;;5.28;3.30;;;;;;;;;;5089151;28;20444;-71
2023/04/05 13:11:43;;;;;;;7.32;3.92;;;;;;;;;;5088378;28;20052;-71
2023/04/05 13:14:10;;;;;;;4.35;3.55;;;;;;;;;;5087576;28;20431;-71
2023/04/05 13:16:38;;;;;;;5.53;3.33;;;;;;;;;;5084520;28;20052;-71
2023/04/05 13:19:05;;;;;;;7.93;4.20;;;;;;;;;;5081623;28;20067;-71
2023/04/05 13:21:34;;;;;;;6.65;4.10;;;;;;;;;;5087139;28;20051;-71
2023/04/05 13:24:01;;;;;;;5.10;3.65;;;;;;;;;;5088977;28;20047;-71
2023/04/05 13:26:28;;;;;;;6.72;3.88;;;;;;;;;;5085464;28;20097;-69
2023/04/05 13:28:56;;;;;;;7.57;3.42;;;;;;;;;;5089616;28;20051;-71
2023/04/05 13:31:23;;;;;;;7.47;3.92;;;;;;;;;;5087228;28;20040;-70
2023/04/05 13:33:50;;;;;;;5.30;4.07;;;;;;;;;;5086945;28;20048;-71
2023/04/05 13:36:18;;;;;;;7.57;4.00;;;;;;;;;;5083578;28;20483;-70
2023/04/05 13:38:46;;;;;;;7.90;4.18;;;;;;;;;;5089621;28;20048;-70
2023/04/05 13:41:14;;;;;;;7.82;4.32;;;;;;;;;;5087458;28;20056;-70
2023/04/05 13:43:42;;;;;;;5.90;4.15;;;;;;;;;;5089176;28;20048;-70
2023/04/05 13:46:09;;;;;;;6.38;3.70;;;;;;;;;;5084996;28;20044;-71
2023/04/05 13:48:37;;;;;;;5.68;3.90;;;;;;;;;;5089326;28;20543;-70
2023/04/05 13:51:05;;;;;;;8.35;3.92;;;;;;;;;;5086327;28;20056;-71
2023/04/05 13:53:32;;;;;;;7.15;4.07;;;;;;;;;;5087496;28;20818;-70
2023/04/05 13:56:01;;;;;;;6.20;4.28;;;;;;;;;;5085079;28;20044;-70
2023/04/05 13:58:28;;;;;;;7.82;3.70;;;;;;;;;;5084123;28;20048;-70
2023/04/05 14:00:55;;;;;;;5.07;3.75;;;;;;;;;;5084812;28;20729;-70
2023/04/05 14:03:23;;;;;;;5.63;3.85;;;;;;;;;;5087167;28;20048;-70
2023/04/05 14:05:50;;;;;;;7.68;3.80;;;;;;;;;;5081102;28;20136;-70
2023/04/05 14:08:17;;;;;;;13.55;4.45;;;;;;;;;;5086960;28;20043;-71
2023/04/05 14:10:44;;;;;;;5.30;3.95;;;;;;;;;;5085168;28;20056;-70
2023/04/05 14:13:15;;;;;;;7.97;4.07;;;;;;;;;;5089583;28;20411;-70
2023/04/05 14:15:42;;;;;;;5.70;4.10;;;;;;;;;;5087689;28;20040;-70
2023/04/05 14:18:10;;;;;;;7.35;3.60;;;;;;;;;;5081145;28;20105;-70
2023/04/05 14:20:37;;;;;;;6.32;3.60;;;;;;;;;;5067365;28;20087;-70
2023/04/05 14:23:04;;;;;;;6.65;3.50;;;;;;;;;;5086602;28;20217;-70
2023/04/05 14:25:32;;;;;;;6.95;4.10;;;;;;;;;;5082373;28;20048;-70
2023/04/05 14:27:59;;;;;;;5.07;3.75;;;;;;;;;;5086553;28;20048;-70
2023/04/05 14:30:28;;;;;;;6.97;3.47;;;;;;;;;;5087107;28;20563;-70
2023/04/05 14:32:55;;;;;;;6.30;4.18;;;;;;;;;;5086936;28;20059;-70
2023/04/05 14:35:22;;;;;;;8.75;3.40;;;;;;;;;;5087803;28;20052;-70
2023/04/05 14:37:50;;;;;;;4.70;3.42;;;;;;;;;;5086863;28;20056;-70
2023/04/05 14:40:18;;;;;;;6.00;3.78;;;;;;;;;;5067386;28;20086;-70
2023/04/05 14:42:46;;;;;;;6.97;3.90;;;;;;;;;;5085369;28;20106;-71
2023/04/05 14:45:13;;;;;;;5.95;3.60;;;;;;;;;;5086447;28;20127;-70
2023/04/05 14:47:42;;;;;;;5.95;4.18;;;;;;;;;;5088025;28;20491;-70